sensor_id;sensor_type;location;lat;lon;timestamp;P1;durP1;ratioP1;P2;durP2;ratioP2
20456;SDS011;10387;51.102;6.848;2023-04-15T00:01:27;9.93;;;7.77;;
20456;SDS011;10387;51.102;6.848;2023-04-15T00:03:56;10.30;;;7.20;;
20456;SDS011;10387;51.102;6.848;2023-04-15T00:06:22;10.30;;;7.67;;
20456;SDS011;10387;51.102;6.848;2023-04-15T00:08:48;10.03;;;7.27;;
20456;SDS011;10387;51.102;6.848;2023-04-15T00:11:15;8.50;;;6.67;;
20456;SDS011;10387;51.102;6.848;2023-04-15T00:13:42;10.73;;;7.47;;
20456;SDS011;10387;51.102;6.848;2023-04-15T00:16:08;8.30;;;7.50;;
20456;SDS011;10387;51.102;6.848;2023-04-15T00:18:35;10.93;;;7.87;;
20456;SDS011;10387;51.102;6.848;2023-04-15T00:21:02;9.20;;;8.00;;
20456;SDS011;10387;51.102;6.848;2023-04-15T00:23:28;11.03;;;7.80;;
20456;SDS011;10387;51.102;6.848;2023-04-15T00:25:54;8.10;;;7.40;;
20456;SDS011;10387;51.102;6.848;2023-04-15T00:28:21;10.33;;;7.17;;
20456;SDS011;10387;51.102;6.848;2023-04-15T00:30:47;8.87;;;7.43;;
20456;SDS011;10387;51.102;6.848;2023-04-15T00:33:13;8.60;;;7.70;;
20456;SDS011;10387;51.102;6.848;2023-04-15T00:35:40;11.43;;;8.30;;
20456;SDS011;10387;51.102;6.848;2023-04-15T00:38:07;9.23;;;7.47;;
20456;SDS011;10387;51.102;6.848;2023-04-15T00:40:33;8.83;;;7.40;;
20456;SDS011;10387;51.102;6.848;2023-04-15T00:42:59;8.57;;;7.17;;
20456;SDS011;10387;51.102;6.848;2023-04-15T00:45:26;9.13;;;7.73;;
20456;SDS011;10387;51.102;6.848;2023-04-15T00:47:53;9.20;;;8.30;;
20456;SDS011;10387;51.102;6.848;2023-04-15T00:50:20;8.20;;;7.37;;
20456;SDS011;10387;51.102;6.848;2023-04-15T00:52:47;9.90;;;8.20;;
20456;SDS011;10387;51.102;6.848;2023-04-15T00:55:13;10.27;;;8.50;;
20456;SDS011;10387;51.102;6.848;2023-04-15T00:57:40;8.40;;;7.63;;
20456;SDS011;10387;51.102;6.848;2023-04-15T01:00:06;10.07;;;7.60;;
20456;SDS011;10387;51.102;6.848;2023-04-15T01:02:33;9.63;;;8.43;;
20456;SDS011;10387;51.102;6.848;2023-04-15T01:05:00;9.60;;;7.53;;
20456;SDS011;10387;51.102;6.848;2023-04-15T01:07:28;7.93;;;7.30;;
20456;SDS011;10387;51.102;6.848;2023-04-15T01:09:54;8.37;;;7.53;;
20456;SDS011;10387;51.102;6.848;2023-04-15T01:12:21;8.50;;;7.40;;
20456;SDS011;10387;51.102;6.848;2023-04-15T01:14:47;10.00;;;7.90;;
20456;SDS011;10387;51.102;6.848;2023-04-15T01:17:13;10.27;;;7.97;;
20456;SDS011;10387;51.102;6.848;2023-04-15T01:19:39;8.63;;;7.67;;
20456;SDS011;10387;51.102;6.848;2023-04-15T01:22:06;10.13;;;7.40;;
20456;SDS011;10387;51.102;6.848;2023-04-15T01:24:33;9.27;;;8.30;;
20456;SDS011;10387;51.102;6.848;2023-04-15T01:27:00;10.43;;;7.97;;
20456;SDS011;10387;51.102;6.848;2023-04-15T01:29:26;10.03;;;8.43;;
20456;SDS011;10387;51.102;6.848;2023-04-15T01:31:53;9.30;;;7.97;;
20456;SDS011;10387;51.102;6.848;2023-04-15T01:34:20;10.20;;;8.30;;
20456;SDS011;10387;51.102;6.848;2023-04-15T01:36:46;9.33;;;8.23;;
20456;SDS011;10387;51.102;6.848;2023-04-15T01:39:12;11.13;;;7.93;;
20456;SDS011;10387;51.102;6.848;2023-04-15T01:41:39;10.63;;;8.67;;
20456;SDS011;10387;51.102;6.848;2023-04-15T01:44:06;10.13;;;9.13;;
20456;SDS011;10387;51.102;6.848;2023-04-15T01:46:32;9.53;;;8.47;;
20456;SDS011;10387;51.102;6.848;2023-04-15T01:48:59;10.33;;;9.07;;
20456;SDS011;10387;51.102;6.848;2023-04-15T01:51:25;10.00;;;8.43;;
20456;SDS011;10387;51.102;6.848;2023-04-15T01:53:52;9.10;;;8.17;;
20456;SDS011;10387;51.102;6.848;2023-04-15T01:56:22;9.80;;;8.80;;
20456;SDS011;10387;51.102;6.848;2023-04-15T01:58:51;9.50;;;8.10;;
20456;SDS011;10387;51.102;6.848;2023-04-15T02:01:17;8.80;;;7.87;;
20456;SDS011;10387;51.102;6.848;2023-04-15T02:03:44;10.37;;;8.10;;
20456;SDS011;10387;51.102;6.848;2023-04-15T02:06:10;10.50;;;9.17;;
20456;SDS011;10387;51.102;6.848;2023-04-15T02:08:37;11.33;;;9.23;;
20456;SDS011;10387;51.102;6.848;2023-04-15T02:11:05;11.00;;;7.90;;
20456;SDS011;10387;51.102;6.848;2023-04-15T02:13:32;10.93;;;8.43;;
20456;SDS011;10387;51.102;6.848;2023-04-15T02:15:58;11.57;;;8.40;;
20456;SDS011;10387;51.102;6.848;2023-04-15T02:18:25;9.63;;;7.83;;
20456;SDS011;10387;51.102;6.848;2023-04-15T02:20:51;9.73;;;7.90;;
20456;SDS011;10387;51.102;6.848;2023-04-15T02:23:17;9.90;;;8.90;;
20456;SDS011;10387;51.102;6.848;2023-04-15T02:25:43;9.67;;;8.70;;
20456;SDS011;10387;51.102;6.848;2023-04-15T02:28:09;10.13;;;8.53;;
20456;SDS011;10387;51.102;6.848;2023-04-15T02:30:35;10.77;;;8.90;;
20456;SDS011;10387;51.102;6.848;2023-04-15T02:33:02;10.83;;;8.27;;
20456;SDS011;10387;51.102;6.848;2023-04-15T02:35:28;9.33;;;8.20;;
20456;SDS011;10387;51.102;6.848;2023-04-15T02:37:54;10.43;;;8.80;;
20456;SDS011;10387;51.102;6.848;2023-04-15T02:40:20;10.57;;;8.23;;
20456;SDS011;10387;51.102;6.848;2023-04-15T02:42:47;10.80;;;9.03;;
20456;SDS011;10387;51.102;6.848;2023-04-15T02:45:16;9.87;;;8.80;;
20456;SDS011;10387;51.102;6.848;2023-04-15T02:47:44;11.73;;;9.23;;
20456;SDS011;10387;51.102;6.848;2023-04-15T02:50:11;11.17;;;9.27;;
20456;SDS011;10387;51.102;6.848;2023-04-15T02:52:41;11.27;;;9.50;;
20456;SDS011;10387;51.102;6.848;2023-04-15T02:55:08;12.47;;;9.90;;
20456;SDS011;10387;51.102;6.848;2023-04-15T02:57:35;12.17;;;10.13;;
20456;SDS011;10387;51.102;6.848;2023-04-15T03:00:05;13.10;;;9.83;;
20456;SDS011;10387;51.102;6.848;2023-04-15T03:02:35;11.20;;;9.83;;
20456;SDS011;10387;51.102;6.848;2023-04-15T03:05:02;13.33;;;10.17;;
20456;SDS011;10387;51.102;6.848;2023-04-15T03:07:30;15.33;;;9.90;;
20456;SDS011;10387;51.102;6.848;2023-04-15T03:09:56;13.33;;;11.07;;
20456;SDS011;10387;51.102;6.848;2023-04-15T03:12:22;11.90;;;10.30;;
20456;SDS011;10387;51.102;6.848;2023-04-15T03:14:51;10.40;;;9.30;;
20456;SDS011;10387;51.102;6.848;2023-04-15T03:17:21;11.67;;;10.50;;
20456;SDS011;10387;51.102;6.848;2023-04-15T03:19:48;12.30;;;11.07;;
20456;SDS011;10387;51.102;6.848;2023-04-15T03:22:14;14.30;;;10.37;;
20456;SDS011;10387;51.102;6.848;2023-04-15T03:24:40;12.20;;;10.77;;
20456;SDS011;10387;51.102;6.848;2023-04-15T03:27:06;11.83;;;10.63;;
20456;SDS011;10387;51.102;6.848;2023-04-15T03:29:34;13.03;;;11.50;;
20456;SDS011;10387;51.102;6.848;2023-04-15T03:32:00;12.57;;;11.23;;
20456;SDS011;10387;51.102;6.848;2023-04-15T03:34:30;12.37;;;10.97;;
20456;SDS011;10387;51.102;6.848;2023-04-15T03:36:56;12.77;;;11.47;;
20456;SDS011;10387;51.102;6.848;2023-04-15T03:39:23;14.87;;;11.43;;
20456;SDS011;10387;51.102;6.848;2023-04-15T03:41:49;11.93;;;10.73;;
20456;SDS011;10387;51.102;6.848;2023-04-15T03:44:15;12.40;;;11.07;;
20456;SDS011;10387;51.102;6.848;2023-04-15T03:46:41;13.33;;;11.70;;
20456;SDS011;10387;51.102;6.848;2023-04-15T03:49:07;12.03;;;10.73;;
20456;SDS011;10387;51.102;6.848;2023-04-15T03:51:33;12.40;;;11.07;;
20456;SDS011;10387;51.102;6.848;2023-04-15T03:54:00;12.17;;;10.87;;
20456;SDS011;10387;51.102;6.848;2023-04-15T03:56:26;14.43;;;11.83;;
20456;SDS011;10387;51.102;6.848;2023-04-15T03:58:52;11.60;;;10.40;;
20456;SDS011;10387;51.102;6.848;2023-04-15T04:01:18;12.30;;;11.10;;
20456;SDS011;10387;51.102;6.848;2023-04-15T04:03:44;12.47;;;11.20;;
20456;SDS011;10387;51.102;6.848;2023-04-15T04:06:10;13.00;;;10.43;;
20456;SDS011;10387;51.102;6.848;2023-04-15T04:08:36;12.87;;;11.37;;
20456;SDS011;10387;51.102;6.848;2023-04-15T04:11:03;11.93;;;10.40;;
20456;SDS011;10387;51.102;6.848;2023-04-15T04:13:29;11.57;;;10.37;;
20456;SDS011;10387;51.102;6.848;2023-04-15T04:15:55;13.07;;;10.97;;
20456;SDS011;10387;51.102;6.848;2023-04-15T04:18:21;12.40;;;10.10;;
20456;SDS011;10387;51.102;6.848;2023-04-15T04:20:47;13.43;;;11.07;;
20456;SDS011;10387;51.102;6.848;2023-04-15T04:23:14;14.10;;;10.67;;
20456;SDS011;10387;51.102;6.848;2023-04-15T04:25:40;12.50;;;10.83;;
20456;SDS011;10387;51.102;6.848;2023-04-15T04:28:06;11.87;;;10.40;;
20456;SDS011;10387;51.102;6.848;2023-04-15T04:30:32;13.33;;;10.77;;
20456;SDS011;10387;51.102;6.848;2023-04-15T04:32:58;13.20;;;10.57;;
20456;SDS011;10387;51.102;6.848;2023-04-15T04:35:24;13.17;;;10.63;;
20456;SDS011;10387;51.102;6.848;2023-04-15T04:37:51;14.13;;;10.67;;
20456;SDS011;10387;51.102;6.848;2023-04-15T04:40:17;14.77;;;10.57;;
20456;SDS011;10387;51.102;6.848;2023-04-15T04:42:43;11.83;;;10.07;;
20456;SDS011;10387;51.102;6.848;2023-04-15T04:45:10;10.97;;;9.10;;
20456;SDS011;10387;51.102;6.848;2023-04-15T04:47:36;12.00;;;9.27;;
20456;SDS011;10387;51.102;6.848;2023-04-15T04:50:02;15.20;;;10.87;;
20456;SDS011;10387;51.102;6.848;2023-04-15T04:52:28;14.03;;;10.27;;
20456;SDS011;10387;51.102;6.848;2023-04-15T04:54:54;10.43;;;9.30;;
20456;SDS011;10387;51.102;6.848;2023-04-15T04:57:20;12.53;;;9.53;;
20456;SDS011;10387;51.102;6.848;2023-04-15T04:59:46;12.27;;;9.87;;
20456;SDS011;10387;51.102;6.848;2023-04-15T05:02:13;11.63;;;9.93;;
20456;SDS011;10387;51.102;6.848;2023-04-15T05:04:39;12.67;;;10.60;;
20456;SDS011;10387;51.102;6.848;2023-04-15T05:07:05;11.97;;;9.97;;
20456;SDS011;10387;51.102;6.848;2023-04-15T05:09:32;12.10;;;10.47;;
20456;SDS011;10387;51.102;6.848;2023-04-15T05:12:00;14.57;;;10.83;;
20456;SDS011;10387;51.102;6.848;2023-04-15T05:14:26;13.43;;;10.43;;
20456;SDS011;10387;51.102;6.848;2023-04-15T05:16:52;12.77;;;9.83;;
20456;SDS011;10387;51.102;6.848;2023-04-15T05:19:18;13.63;;;10.40;;
20456;SDS011;10387;51.102;6.848;2023-04-15T05:21:44;13.47;;;10.57;;
20456;SDS011;10387;51.102;6.848;2023-04-15T05:24:10;13.83;;;9.73;;
20456;SDS011;10387;51.102;6.848;2023-04-15T05:26:37;12.37;;;10.10;;
20456;SDS011;10387;51.102;6.848;2023-04-15T05:29:03;12.50;;;11.20;;
20456;SDS011;10387;51.102;6.848;2023-04-15T05:31:29;13.27;;;10.57;;
20456;SDS011;10387;51.102;6.848;2023-04-15T05:33:55;12.60;;;11.13;;
20456;SDS011;10387;51.102;6.848;2023-04-15T05:36:21;13.57;;;11.17;;
20456;SDS011;10387;51.102;6.848;2023-04-15T05:38:47;15.03;;;10.57;;
20456;SDS011;10387;51.102;6.848;2023-04-15T05:41:13;13.50;;;11.10;;
20456;SDS011;10387;51.102;6.848;2023-04-15T05:43:40;11.90;;;10.53;;
20456;SDS011;10387;51.102;6.848;2023-04-15T05:46:06;14.07;;;11.00;;
20456;SDS011;10387;51.102;6.848;2023-04-15T05:48:32;14.47;;;10.93;;
20456;SDS011;10387;51.102;6.848;2023-04-15T05:50:59;12.80;;;11.37;;
20456;SDS011;10387;51.102;6.848;2023-04-15T05:53:25;13.07;;;11.67;;
20456;SDS011;10387;51.102;6.848;2023-04-15T05:55:51;13.17;;;11.70;;
20456;SDS011;10387;51.102;6.848;2023-04-15T05:58:17;15.90;;;11.37;;
20456;SDS011;10387;51.102;6.848;2023-04-15T06:00:43;12.67;;;11.23;;
20456;SDS011;10387;51.102;6.848;2023-04-15T06:03:10;15.13;;;11.70;;
20456;SDS011;10387;51.102;6.848;2023-04-15T06:05:36;12.13;;;10.67;;
20456;SDS011;10387;51.102;6.848;2023-04-15T06:08:02;12.73;;;10.53;;
20456;SDS011;10387;51.102;6.848;2023-04-15T06:10:28;11.77;;;10.30;;
20456;SDS011;10387;51.102;6.848;2023-04-15T06:13:00;12.07;;;10.90;;
20456;SDS011;10387;51.102;6.848;2023-04-15T06:15:26;13.80;;;11.20;;
20456;SDS011;10387;51.102;6.848;2023-04-15T06:17:53;13.20;;;11.33;;
20456;SDS011;10387;51.102;6.848;2023-04-15T06:20:19;13.47;;;11.40;;
20456;SDS011;10387;51.102;6.848;2023-04-15T06:22:45;13.57;;;12.00;;
20456;SDS011;10387;51.102;6.848;2023-04-15T06:25:11;13.27;;;11.53;;
20456;SDS011;10387;51.102;6.848;2023-04-15T06:27:37;12.33;;;11.00;;
20456;SDS011;10387;51.102;6.848;2023-04-15T06:30:03;13.67;;;11.40;;
20456;SDS011;10387;51.102;6.848;2023-04-15T06:32:31;13.53;;;11.10;;
20456;SDS011;10387;51.102;6.848;2023-04-15T06:34:57;14.50;;;11.40;;
20456;SDS011;10387;51.102;6.848;2023-04-15T06:37:23;14.73;;;11.43;;
20456;SDS011;10387;51.102;6.848;2023-04-15T06:39:49;14.70;;;12.20;;
20456;SDS011;10387;51.102;6.848;2023-04-15T06:42:15;16.00;;;14.00;;
20456;SDS011;10387;51.102;6.848;2023-04-15T06:44:41;17.40;;;13.17;;
20456;SDS011;10387;51.102;6.848;2023-04-15T06:47:08;13.90;;;12.43;;
20456;SDS011;10387;51.102;6.848;2023-04-15T06:49:34;18.63;;;13.10;;
20456;SDS011;10387;51.102;6.848;2023-04-15T06:52:00;16.53;;;13.30;;
20456;SDS011;10387;51.102;6.848;2023-04-15T06:54:26;15.40;;;13.67;;
20456;SDS011;10387;51.102;6.848;2023-04-15T06:56:53;15.03;;;13.43;;
20456;SDS011;10387;51.102;6.848;2023-04-15T06:59:19;16.03;;;13.37;;
20456;SDS011;10387;51.102;6.848;2023-04-15T07:01:45;16.60;;;13.80;;
20456;SDS011;10387;51.102;6.848;2023-04-15T07:04:11;17.07;;;13.63;;
20456;SDS011;10387;51.102;6.848;2023-04-15T07:06:37;16.10;;;13.00;;
20456;SDS011;10387;51.102;6.848;2023-04-15T07:09:03;16.60;;;12.10;;
20456;SDS011;10387;51.102;6.848;2023-04-15T07:11:30;13.40;;;11.70;;
20456;SDS011;10387;51.102;6.848;2023-04-15T07:13:59;14.43;;;11.87;;
20456;SDS011;10387;51.102;6.848;2023-04-15T07:16:25;14.83;;;11.97;;
20456;SDS011;10387;51.102;6.848;2023-04-15T07:18:51;13.17;;;11.33;;
20456;SDS011;10387;51.102;6.848;2023-04-15T07:21:17;14.20;;;11.27;;
20456;SDS011;10387;51.102;6.848;2023-04-15T07:23:44;10.20;;;8.73;;
20456;SDS011;10387;51.102;6.848;2023-04-15T07:26:10;8.50;;;7.57;;
20456;SDS011;10387;51.102;6.848;2023-04-15T07:28:36;9.07;;;7.57;;
20456;SDS011;10387;51.102;6.848;2023-04-15T07:31:02;10.27;;;8.67;;
20456;SDS011;10387;51.102;6.848;2023-04-15T07:33:28;11.53;;;9.27;;
20456;SDS011;10387;51.102;6.848;2023-04-15T07:35:55;10.00;;;8.33;;
20456;SDS011;10387;51.102;6.848;2023-04-15T07:38:21;9.90;;;7.70;;
20456;SDS011;10387;51.102;6.848;2023-04-15T07:40:47;8.63;;;6.97;;
20456;SDS011;10387;51.102;6.848;2023-04-15T07:43:13;8.43;;;7.63;;
20456;SDS011;10387;51.102;6.848;2023-04-15T07:45:39;8.97;;;7.03;;
20456;SDS011;10387;51.102;6.848;2023-04-15T07:48:05;7.00;;;6.30;;
20456;SDS011;10387;51.102;6.848;2023-04-15T07:50:32;9.53;;;7.30;;
20456;SDS011;10387;51.102;6.848;2023-04-15T07:52:58;8.73;;;6.70;;
20456;SDS011;10387;51.102;6.848;2023-04-15T07:55:24;8.03;;;7.13;;
20456;SDS011;10387;51.102;6.848;2023-04-15T07:57:50;8.27;;;6.77;;
20456;SDS011;10387;51.102;6.848;2023-04-15T08:00:16;7.10;;;5.87;;
20456;SDS011;10387;51.102;6.848;2023-04-15T08:02:43;7.93;;;6.07;;
20456;SDS011;10387;51.102;6.848;2023-04-15T08:05:10;8.33;;;6.77;;
20456;SDS011;10387;51.102;6.848;2023-04-15T08:07:37;6.33;;;5.60;;
20456;SDS011;10387;51.102;6.848;2023-04-15T08:10:03;5.30;;;4.80;;
20456;SDS011;10387;51.102;6.848;2023-04-15T08:12:29;6.00;;;4.37;;
20456;SDS011;10387;51.102;6.848;2023-04-15T08:14:56;5.67;;;4.47;;
20456;SDS011;10387;51.102;6.848;2023-04-15T08:17:22;4.87;;;3.90;;
20456;SDS011;10387;51.102;6.848;2023-04-15T08:19:48;5.03;;;4.23;;
20456;SDS011;10387;51.102;6.848;2023-04-15T08:22:15;4.63;;;3.83;;
20456;SDS011;10387;51.102;6.848;2023-04-15T08:24:41;4.13;;;3.40;;
20456;SDS011;10387;51.102;6.848;2023-04-15T08:27:07;4.63;;;3.83;;
20456;SDS011;10387;51.102;6.848;2023-04-15T08:29:34;4.10;;;3.50;;
20456;SDS011;10387;51.102;6.848;2023-04-15T08:32:00;4.83;;;3.80;;
20456;SDS011;10387;51.102;6.848;2023-04-15T08:34:27;4.30;;;3.90;;
20456;SDS011;10387;51.102;6.848;2023-04-15T08:36:53;4.30;;;3.90;;
20456;SDS011;10387;51.102;6.848;2023-04-15T08:39:19;5.33;;;4.07;;
20456;SDS011;10387;51.102;6.848;2023-04-15T08:41:46;3.90;;;3.50;;
20456;SDS011;10387;51.102;6.848;2023-04-15T08:44:13;4.63;;;3.37;;
20456;SDS011;10387;51.102;6.848;2023-04-15T08:46:39;4.93;;;3.47;;
20456;SDS011;10387;51.102;6.848;2023-04-15T08:49:09;3.73;;;3.37;;
20456;SDS011;10387;51.102;6.848;2023-04-15T08:51:36;4.30;;;3.90;;
20456;SDS011;10387;51.102;6.848;2023-04-15T08:54:03;4.87;;;4.17;;
20456;SDS011;10387;51.102;6.848;2023-04-15T08:56:30;5.10;;;4.23;;
20456;SDS011;10387;51.102;6.848;2023-04-15T08:58:57;5.93;;;4.40;;
20456;SDS011;10387;51.102;6.848;2023-04-15T09:01:24;5.80;;;4.60;;
20456;SDS011;10387;51.102;6.848;2023-04-15T09:03:51;4.90;;;4.40;;
20456;SDS011;10387;51.102;6.848;2023-04-15T09:06:21;5.30;;;4.60;;
20456;SDS011;10387;51.102;6.848;2023-04-15T09:08:48;5.67;;;5.10;;
20456;SDS011;10387;51.102;6.848;2023-04-15T09:11:14;5.13;;;4.60;;
20456;SDS011;10387;51.102;6.848;2023-04-15T09:13:42;5.70;;;4.60;;
20456;SDS011;10387;51.102;6.848;2023-04-15T09:16:08;5.73;;;5.13;;
20456;SDS011;10387;51.102;6.848;2023-04-15T09:18:35;5.77;;;4.60;;
20456;SDS011;10387;51.102;6.848;2023-04-15T09:21:05;6.67;;;5.00;;
20456;SDS011;10387;51.102;6.848;2023-04-15T09:23:33;5.57;;;5.07;;
20456;SDS011;10387;51.102;6.848;2023-04-15T09:26:00;5.93;;;5.33;;
20456;SDS011;10387;51.102;6.848;2023-04-15T09:28:27;6.27;;;5.37;;
20456;SDS011;10387;51.102;6.848;2023-04-15T09:30:54;6.17;;;5.40;;
20456;SDS011;10387;51.102;6.848;2023-04-15T09:33:21;7.00;;;5.87;;
20456;SDS011;10387;51.102;6.848;2023-04-15T09:35:58;5.83;;;5.20;;
20456;SDS011;10387;51.102;6.848;2023-04-15T09:38:24;7.73;;;5.67;;
20456;SDS011;10387;51.102;6.848;2023-04-15T09:40:52;6.20;;;5.33;;
20456;SDS011;10387;51.102;6.848;2023-04-15T09:43:18;6.20;;;5.57;;
20456;SDS011;10387;51.102;6.848;2023-04-15T09:45:46;6.03;;;5.27;;
20456;SDS011;10387;51.102;6.848;2023-04-15T09:48:22;5.30;;;4.80;;
20456;SDS011;10387;51.102;6.848;2023-04-15T09:50:51;5.23;;;4.73;;
20456;SDS011;10387;51.102;6.848;2023-04-15T09:53:22;5.60;;;5.10;;
20456;SDS011;10387;51.102;6.848;2023-04-15T09:55:49;5.40;;;4.90;;
20456;SDS011;10387;51.102;6.848;2023-04-15T09:58:26;5.57;;;4.70;;
20456;SDS011;10387;51.102;6.848;2023-04-15T10:00:53;5.87;;;4.80;;
20456;SDS011;10387;51.102;6.848;2023-04-15T10:03:22;5.67;;;5.17;;
20456;SDS011;10387;51.102;6.848;2023-04-15T10:05:49;5.80;;;4.87;;
20456;SDS011;10387;51.102;6.848;2023-04-15T10:08:19;5.90;;;5.27;;
20456;SDS011;10387;51.102;6.848;2023-04-15T10:10:46;5.63;;;5.10;;
20456;SDS011;10387;51.102;6.848;2023-04-15T10:13:19;6.77;;;6.07;;
20456;SDS011;10387;51.102;6.848;2023-04-15T10:16:05;5.97;;;5.30;;
20456;SDS011;10387;51.102;6.848;2023-04-15T10:18:37;5.40;;;4.83;;
20456;SDS011;10387;51.102;6.848;2023-04-15T10:21:05;5.03;;;4.10;;
20456;SDS011;10387;51.102;6.848;2023-04-15T10:23:33;6.20;;;4.03;;
20456;SDS011;10387;51.102;6.848;2023-04-15T10:26:00;4.00;;;3.60;;
20456;SDS011;10387;51.102;6.848;2023-04-15T10:28:26;4.47;;;4.00;;
20456;SDS011;10387;51.102;6.848;2023-04-15T10:30:52;5.00;;;4.43;;
20456;SDS011;10387;51.102;6.848;2023-04-15T10:33:20;4.80;;;4.40;;
20456;SDS011;10387;51.102;6.848;2023-04-15T10:35:47;5.73;;;4.77;;
20456;SDS011;10387;51.102;6.848;2023-04-15T10:41:12;6.53;;;6.03;;
20456;SDS011;10387;51.102;6.848;2023-04-15T10:43:38;6.70;;;6.10;;
20456;SDS011;10387;51.102;6.848;2023-04-15T10:46:05;6.93;;;6.33;;
20456;SDS011;10387;51.102;6.848;2023-04-15T10:48:31;7.47;;;6.80;;
20456;SDS011;10387;51.102;6.848;2023-04-15T10:50:59;7.67;;;6.93;;
20456;SDS011;10387;51.102;6.848;2023-04-15T10:53:29;8.47;;;7.77;;
20456;SDS011;10387;51.102;6.848;2023-04-15T10:55:59;8.40;;;7.70;;
20456;SDS011;10387;51.102;6.848;2023-04-15T10:58:25;6.77;;;6.27;;
20456;SDS011;10387;51.102;6.848;2023-04-15T11:00:52;6.90;;;6.40;;
20456;SDS011;10387;51.102;6.848;2023-04-15T11:03:37;6.90;;;6.40;;
20456;SDS011;10387;51.102;6.848;2023-04-15T11:06:05;7.10;;;6.50;;
20456;SDS011;10387;51.102;6.848;2023-04-15T11:11:16;7.73;;;7.13;;
20456;SDS011;10387;51.102;6.848;2023-04-15T11:13:49;8.70;;;8.10;;
20456;SDS011;10387;51.102;6.848;2023-04-15T11:16:18;9.50;;;8.90;;
20456;SDS011;10387;51.102;6.848;2023-04-15T11:18:53;9.53;;;8.83;;
20456;SDS011;10387;51.102;6.848;2023-04-15T11:21:21;10.10;;;9.20;;
20456;SDS011;10387;51.102;6.848;2023-04-15T11:23:49;8.77;;;8.10;;
20456;SDS011;10387;51.102;6.848;2023-04-15T11:26:15;10.00;;;9.20;;
20456;SDS011;10387;51.102;6.848;2023-04-15T11:28:42;9.60;;;8.90;;
20456;SDS011;10387;51.102;6.848;2023-04-15T11:31:10;9.10;;;8.40;;
20456;SDS011;10387;51.102;6.848;2023-04-15T11:33:37;10.00;;;9.30;;
20456;SDS011;10387;51.102;6.848;2023-04-15T11:36:04;8.13;;;7.53;;
20456;SDS011;10387;51.102;6.848;2023-04-15T11:38:30;8.10;;;7.50;;
20456;SDS011;10387;51.102;6.848;2023-04-15T11:40:56;7.93;;;7.30;;
20456;SDS011;10387;51.102;6.848;2023-04-15T11:43:22;8.80;;;8.10;;
20456;SDS011;10387;51.102;6.848;2023-04-15T11:48:19;8.33;;;7.53;;
20456;SDS011;10387;51.102;6.848;2023-04-15T11:50:45;8.10;;;7.37;;
20456;SDS011;10387;51.102;6.848;2023-04-15T11:53:12;6.93;;;6.30;;
20456;SDS011;10387;51.102;6.848;2023-04-15T11:55:41;6.00;;;5.40;;
20456;SDS011;10387;51.102;6.848;2023-04-15T12:03:26;4.60;;;4.30;;
20456;SDS011;10387;51.102;6.848;2023-04-15T12:11:14;5.77;;;5.17;;
20456;SDS011;10387;51.102;6.848;2023-04-15T12:13:44;6.20;;;5.10;;
20456;SDS011;10387;51.102;6.848;2023-04-15T12:16:10;5.90;;;5.30;;
20456;SDS011;10387;51.102;6.848;2023-04-15T12:18:37;5.93;;;5.33;;
20456;SDS011;10387;51.102;6.848;2023-04-15T12:21:04;5.00;;;4.60;;
20456;SDS011;10387;51.102;6.848;2023-04-15T12:23:35;5.63;;;5.03;;
20456;SDS011;10387;51.102;6.848;2023-04-15T12:26:04;4.53;;;3.93;;
20456;SDS011;10387;51.102;6.848;2023-04-15T12:28:30;4.70;;;4.30;;
20456;SDS011;10387;51.102;6.848;2023-04-15T12:30:57;4.37;;;3.97;;
20456;SDS011;10387;51.102;6.848;2023-04-15T12:33:31;5.30;;;4.30;;
20456;SDS011;10387;51.102;6.848;2023-04-15T12:35:57;5.20;;;4.70;;
20456;SDS011;10387;51.102;6.848;2023-04-15T12:38:23;5.40;;;4.90;;
20456;SDS011;10387;51.102;6.848;2023-04-15T12:40:49;5.63;;;5.13;;
20456;SDS011;10387;51.102;6.848;2023-04-15T12:43:15;7.50;;;6.77;;
20456;SDS011;10387;51.102;6.848;2023-04-15T12:45:42;6.73;;;6.13;;
20456;SDS011;10387;51.102;6.848;2023-04-15T12:48:08;5.97;;;5.10;;
20456;SDS011;10387;51.102;6.848;2023-04-15T12:50:34;5.80;;;5.30;;
20456;SDS011;10387;51.102;6.848;2023-04-15T12:53:01;4.40;;;4.00;;
20456;SDS011;10387;51.102;6.848;2023-04-15T12:55:27;5.60;;;4.40;;
20456;SDS011;10387;51.102;6.848;2023-04-15T12:57:55;4.83;;;4.30;;
20456;SDS011;10387;51.102;6.848;2023-04-15T13:00:21;4.67;;;4.20;;
20456;SDS011;10387;51.102;6.848;2023-04-15T13:02:47;5.10;;;4.53;;
20456;SDS011;10387;51.102;6.848;2023-04-15T13:05:13;4.60;;;3.87;;
20456;SDS011;10387;51.102;6.848;2023-04-15T13:07:40;4.77;;;4.27;;
20456;SDS011;10387;51.102;6.848;2023-04-15T13:10:06;4.70;;;4.30;;
20456;SDS011;10387;51.102;6.848;2023-04-15T13:12:33;4.93;;;3.87;;
20456;SDS011;10387;51.102;6.848;2023-04-15T13:15:02;4.70;;;4.30;;
20456;SDS011;10387;51.102;6.848;2023-04-15T13:17:29;6.30;;;4.73;;
20456;SDS011;10387;51.102;6.848;2023-04-15T13:19:55;4.80;;;4.30;;
20456;SDS011;10387;51.102;6.848;2023-04-15T13:22:21;6.00;;;5.50;;
20456;SDS011;10387;51.102;6.848;2023-04-15T13:24:47;8.13;;;7.33;;
20456;SDS011;10387;51.102;6.848;2023-04-15T13:27:13;10.70;;;9.70;;
20456;SDS011;10387;51.102;6.848;2023-04-15T13:29:40;11.57;;;10.33;;
20456;SDS011;10387;51.102;6.848;2023-04-15T13:32:06;10.23;;;9.00;;
20456;SDS011;10387;51.102;6.848;2023-04-15T13:34:32;9.23;;;8.23;;
20456;SDS011;10387;51.102;6.848;2023-04-15T13:37:04;8.63;;;7.23;;
20456;SDS011;10387;51.102;6.848;2023-04-15T13:39:30;6.93;;;6.33;;
20456;SDS011;10387;51.102;6.848;2023-04-15T13:41:56;7.63;;;6.87;;
20456;SDS011;10387;51.102;6.848;2023-04-15T13:44:23;7.77;;;6.97;;
20456;SDS011;10387;51.102;6.848;2023-04-15T13:46:49;7.43;;;6.60;;
20456;SDS011;10387;51.102;6.848;2023-04-15T13:49:15;6.77;;;6.07;;
20456;SDS011;10387;51.102;6.848;2023-04-15T13:51:41;7.90;;;7.20;;
20456;SDS011;10387;51.102;6.848;2023-04-15T13:54:07;7.67;;;6.97;;
20456;SDS011;10387;51.102;6.848;2023-04-15T13:56:34;9.43;;;8.53;;
20456;SDS011;10387;51.102;6.848;2023-04-15T13:59:00;10.80;;;9.80;;
20456;SDS011;10387;51.102;6.848;2023-04-15T14:01:27;11.03;;;10.00;;
20456;SDS011;10387;51.102;6.848;2023-04-15T14:03:53;8.80;;;8.00;;
20456;SDS011;10387;51.102;6.848;2023-04-15T14:06:20;6.70;;;6.00;;
20456;SDS011;10387;51.102;6.848;2023-04-15T14:08:46;7.63;;;6.83;;
20456;SDS011;10387;51.102;6.848;2023-04-15T14:11:12;10.30;;;9.27;;
20456;SDS011;10387;51.102;6.848;2023-04-15T14:13:38;7.57;;;6.77;;
20456;SDS011;10387;51.102;6.848;2023-04-15T14:16:04;7.53;;;6.43;;
20456;SDS011;10387;51.102;6.848;2023-04-15T14:18:31;7.10;;;5.30;;
20456;SDS011;10387;51.102;6.848;2023-04-15T14:20:58;7.10;;;6.20;;
20456;SDS011;10387;51.102;6.848;2023-04-15T14:23:24;8.93;;;6.83;;
20456;SDS011;10387;51.102;6.848;2023-04-15T14:25:50;8.00;;;6.23;;
20456;SDS011;10387;51.102;6.848;2023-04-15T14:28:16;8.27;;;6.67;;
20456;SDS011;10387;51.102;6.848;2023-04-15T14:30:42;7.27;;;6.43;;
20456;SDS011;10387;51.102;6.848;2023-04-15T14:33:08;7.63;;;6.80;;
20456;SDS011;10387;51.102;6.848;2023-04-15T14:35:34;7.57;;;6.80;;
20456;SDS011;10387;51.102;6.848;2023-04-15T14:38:01;8.27;;;7.47;;
20456;SDS011;10387;51.102;6.848;2023-04-15T14:40:28;14.03;;;12.63;;
20456;SDS011;10387;51.102;6.848;2023-04-15T14:42:54;18.13;;;16.23;;
20456;SDS011;10387;51.102;6.848;2023-04-15T14:45:20;13.43;;;12.13;;
20456;SDS011;10387;51.102;6.848;2023-04-15T14:47:46;13.83;;;12.37;;
20456;SDS011;10387;51.102;6.848;2023-04-15T14:50:12;14.23;;;12.83;;
20456;SDS011;10387;51.102;6.848;2023-04-15T14:52:38;17.80;;;15.97;;
20456;SDS011;10387;51.102;6.848;2023-04-15T14:55:05;9.53;;;8.57;;